Time;durP1;ratioP1;P1;durP2;ratioP2;P2;SDS_P1;SDS_P2;PMS_P1;PMS_P2;Temp;Humidity;BMP_temperature;BMP_pressure;BME280_temperature;BME280_humidity;BME280_pressure;Samples;Min_cycle;Max_cycle;Signal;HPM_P1;HPM_P2
2020/12/04 00:00:45;;;;;;;34.60;20.57;;;-1.20;70.20;;;;;;5066776;28;20547;-78
2020/12/04 00:03:11;;;;;;;34.17;21.03;;;-1.30;70.00;;;;;;5070587;28;20599;-79
2020/12/04 00:05:38;;;;;;;33.93;22.63;;;-1.30;70.00;;;;;;5068740;28;20544;-77
2020/12/04 00:08:05;;;;;;;30.77;20.60;;;-1.30;70.10;;;;;;5072824;28;20582;-77
2020/12/04 00:10:31;;;;;;;38.13;22.20;;;-1.30;70.00;;;;;;5065837;28;20559;-79
2020/12/04 00:12:57;;;;;;;36.57;22.20;;;-1.20;70.00;;;;;;5071493;28;20510;-76
2020/12/04 00:15:24;;;;;;;29.70;20.30;;;-1.20;69.90;;;;;;5066939;28;20484;-78
2020/12/04 00:17:50;;;;;;;36.10;22.20;;;-1.20;69.70;;;;;;5066326;28;21025;-77
2020/12/04 00:20:17;;;;;;;34.67;19.93;;;-1.20;69.60;;;;;;5064749;28;20954;-79
2020/12/04 00:22:44;;;;;;;33.93;21.50;;;-1.20;69.70;;;;;;5066848;28;20534;-76
2020/12/04 00:25:11;;;;;;;36.50;21.90;;;-1.20;69.70;;;;;;5066812;28;21248;-77
2020/12/04 00:27:37;;;;;;;35.83;22.77;;;-1.10;69.90;;;;;;5060856;28;20560;-78
2020/12/04 00:30:04;;;;;;;35.23;22.67;;;-1.20;69.30;;;;;;5065634;28;20839;-77
2020/12/04 00:32:30;;;;;;;35.53;20.23;;;-1.10;69.30;;;;;;5063027;28;21017;-76
2020/12/04 00:34:57;;;;;;;34.10;21.57;;;-1.10;69.00;;;;;;5065994;28;20455;-76
2020/12/04 00:37:23;;;;;;;36.13;21.00;;;-1.10;69.10;;;;;;5062245;28;20501;-77
2020/12/04 00:39:49;;;;;;;34.07;21.07;;;-1.10;69.00;;;;;;5066414;28;20560;-77
2020/12/04 00:42:17;;;;;;;35.03;20.57;;;-1.10;69.10;;;;;;5062137;28;20459;-76
2020/12/04 00:44:43;;;;;;;33.47;20.60;;;-1.00;68.90;;;;;;5066249;28;20548;-76
2020/12/04 00:47:09;;;;;;;37.07;20.80;;;-1.00;68.80;;;;;;5061653;28;20473;-77
2020/12/04 00:49:36;;;;;;;31.97;19.77;;;-1.00;68.60;;;;;;5064592;28;20524;-77
2020/12/04 00:52:02;;;;;;;38.97;21.60;;;-0.90;68.80;;;;;;5063647;28;20467;-77
2020/12/04 00:54:28;;;;;;;34.73;21.00;;;-0.90;68.80;;;;;;5066480;28;21418;-76
2020/12/04 00:56:55;;;;;;;31.90;19.57;;;-0.90;68.90;;;;;;5054761;28;20900;-76
2020/12/04 00:59:22;;;;;;;35.47;20.77;;;-0.90;68.30;;;;;;5062357;28;20850;-76
2020/12/04 01:01:49;;;;;;;33.57;19.50;;;-0.90;68.50;;;;;;5065879;28;20526;-75
2020/12/04 01:04:15;;;;;;;31.90;18.40;;;-0.90;68.10;;;;;;5058112;28;20545;-76
2020/12/04 01:06:42;;;;;;;31.60;19.03;;;-0.90;68.20;;;;;;5063233;28;20572;-75
2020/12/04 01:09:08;;;;;;;33.97;20.47;;;-0.80;68.50;;;;;;5057895;28;20590;-75
2020/12/04 01:11:35;;;;;;;30.27;19.57;;;-0.80;68.10;;;;;;5063452;28;20441;-76
2020/12/04 01:14:01;;;;;;;31.10;18.77;;;-0.80;68.20;;;;;;5062893;28;20603;-77
2020/12/04 01:16:29;;;;;;;31.60;20.23;;;-0.80;68.10;;;;;;5062002;28;20484;-76
2020/12/04 01:18:55;;;;;;;30.13;20.20;;;-0.80;68.10;;;;;;5061342;28;20455;-76
2020/12/04 01:21:21;;;;;;;30.97;18.87;;;-0.70;68.20;;;;;;5063848;28;20832;-77
2020/12/04 01:23:52;;;;;;;34.43;20.47;;;-0.90;68.10;;;;;;5060938;28;20503;-77
2020/12/04 01:26:18;;;;;;;31.43;19.30;;;-0.80;68.20;;;;;;5061346;28;20457;-77
2020/12/04 01:28:44;;;;;;;29.40;18.00;;;-0.80;68.20;;;;;;5060482;28;20549;-75
2020/12/04 01:31:11;;;;;;;29.80;20.10;;;-0.80;68.30;;;;;;5063923;28;21010;-76
2020/12/04 01:33:38;;;;;;;28.93;18.00;;;-0.80;68.10;;;;;;5064417;28;20583;-76
2020/12/04 01:36:04;;;;;;;29.90;18.57;;;-0.70;68.30;;;;;;5063311;28;22866;-76
2020/12/04 01:38:31;;;;;;;37.33;19.50;;;-0.70;68.40;;;;;;5059282;28;20538;-76
2020/12/04 01:40:59;;;;;;;31.60;18.67;;;-0.70;68.30;;;;;;5057211;28;20470;-76
2020/12/04 01:43:25;;;;;;;31.13;18.03;;;-0.70;68.30;;;;;;5059490;28;20458;-77
2020/12/04 01:45:51;;;;;;;32.20;18.90;;;-0.60;68.50;;;;;;5056812;28;20465;-77
2020/12/04 01:48:18;;;;;;;28.03;18.37;;;-0.60;68.60;;;;;;5060637;28;21537;-77
2020/12/04 01:50:45;;;;;;;31.70;19.90;;;-0.60;68.40;;;;;;5061991;28;20500;-78
2020/12/04 01:53:12;;;;;;;31.23;18.07;;;-0.60;68.40;;;;;;5066025;28;21729;-78
2020/12/04 01:55:39;;;;;;;33.53;20.67;;;-0.60;68.40;;;;;;5058040;28;20458;-76
2020/12/04 01:58:05;;;;;;;31.47;19.00;;;-0.60;68.50;;;;;;5064514;28;20971;-76
2020/12/04 02:00:31;;;;;;;29.40;17.70;;;-0.60;68.50;;;;;;5061503;28;20466;-76
2020/12/04 02:02:58;;;;;;;33.17;19.07;;;-0.60;68.50;;;;;;5061364;28;20474;-76
2020/12/04 02:05:24;;;;;;;25.33;16.77;;;-0.50;68.50;;;;;;5062857;28;20531;-76
2020/12/04 02:08:05;;;;;;;30.00;17.93;;;-0.50;68.70;;;;;;5060264;28;20499;-77
2020/12/04 02:10:38;;;;;;;27.33;16.40;;;-0.50;68.50;;;;;;5065440;28;20530;-76
2020/12/04 02:13:06;;;;;;;27.50;17.13;;;-0.40;68.60;;;;;;5064578;28;20458;-77
2020/12/04 02:15:34;;;;;;;29.53;19.03;;;-0.40;68.50;;;;;;5062439;28;20538;-76
2020/12/04 02:18:04;;;;;;;28.40;17.67;;;-0.40;68.50;;;;;;5065149;28;20468;-76
2020/12/04 02:20:32;;;;;;;28.93;18.20;;;-0.30;68.70;;;;;;5065151;28;20486;-77
2020/12/04 02:22:58;;;;;;;27.80;18.03;;;-0.30;68.50;;;;;;5065577;28;20966;-80
2020/12/04 02:25:24;;;;;;;31.30;18.57;;;-0.30;68.60;;;;;;5067441;28;20558;-77
2020/12/04 02:27:51;;;;;;;28.13;17.60;;;-0.30;68.40;;;;;;5068272;28;20503;-77
2020/12/04 02:30:22;;;;;;;28.20;17.83;;;-0.20;68.70;;;;;;5068358;28;20545;-80
2020/12/04 02:32:49;;;;;;;29.37;18.47;;;-0.20;68.60;;;;;;5070536;28;20525;-77
2020/12/04 02:35:15;;;;;;;27.83;17.57;;;-0.10;68.60;;;;;;5067028;28;20499;-77
2020/12/04 02:37:42;;;;;;;27.00;17.03;;;-0.20;68.60;;;;;;5062738;28;20524;-78
2020/12/04 02:40:09;;;;;;;33.03;18.10;;;-0.10;68.60;;;;;;5064056;28;20549;-77
2020/12/04 02:42:35;;;;;;;30.10;18.83;;;-0.10;68.60;;;;;;5067139;28;20887;-77
2020/12/04 02:45:01;;;;;;;29.63;18.57;;;-0.10;68.80;;;;;;5060606;28;20531;-77
2020/12/04 02:47:28;;;;;;;33.57;18.67;;;0.00;68.60;;;;;;5065562;28;20514;-77
2020/12/04 02:49:54;;;;;;;29.70;18.93;;;0.00;68.60;;;;;;5068454;28;20537;-78
2020/12/04 02:52:22;;;;;;;29.50;17.40;;;0.00;68.70;;;;;;5067605;28;20556;-77
2020/12/04 02:54:50;;;;;;;28.63;18.17;;;0.00;69.00;;;;;;5068000;28;20854;-76
2020/12/04 02:57:16;;;;;;;30.03;17.27;;;0.00;68.70;;;;;;5060362;28;20536;-77
2020/12/04 02:59:43;;;;;;;29.00;18.13;;;0.00;68.70;;;;;;5064276;28;20462;-79
2020/12/04 03:02:10;;;;;;;26.20;16.97;;;-0.10;68.50;;;;;;5061280;28;20445;-78
2020/12/04 03:04:37;;;;;;;30.80;18.43;;;-0.10;68.60;;;;;;5064386;28;20453;-78
2020/12/04 03:07:03;;;;;;;31.33;18.10;;;-0.10;68.70;;;;;;5062538;28;20477;-78
2020/12/04 03:09:29;;;;;;;31.73;19.50;;;-0.10;68.80;;;;;;5061607;28;20456;-81
2020/12/04 03:11:58;;;;;;;32.70;19.50;;;-0.10;69.00;;;;;;5061800;28;20476;-78
2020/12/04 03:14:24;;;;;;;31.10;19.63;;;-0.20;68.90;;;;;;5066141;28;20554;-77
2020/12/04 03:16:51;;;;;;;31.17;19.73;;;-0.20;69.10;;;;;;5061202;28;20482;-77
2020/12/04 03:19:18;;;;;;;34.70;20.17;;;-0.10;69.50;;;;;;5062140;28;20466;-77
2020/12/04 03:21:44;;;;;;;31.13;19.67;;;-0.10;69.20;;;;;;5058020;28;21086;-77
2020/12/04 03:24:10;;;;;;;27.03;18.60;;;0.00;69.30;;;;;;5060408;28;20964;-78
2020/12/04 03:26:37;;;;;;;35.73;20.47;;;0.00;69.10;;;;;;5062832;28;20476;-78
2020/12/04 03:29:04;;;;;;;29.93;18.93;;;0.00;69.10;;;;;;5061494;28;20461;-78
2020/12/04 03:31:30;;;;;;;29.27;19.77;;;0.00;69.20;;;;;;5062179;28;20482;-78
2020/12/04 03:33:57;;;;;;;30.30;19.37;;;0.10;69.30;;;;;;5058538;28;20901;-80
2020/12/04 03:36:23;;;;;;;31.53;18.87;;;0.10;69.50;;;;;;5062265;28;20455;-78
2020/12/04 03:38:50;;;;;;;29.33;18.30;;;0.10;69.60;;;;;;5058694;28;22278;-78
2020/12/04 03:41:16;;;;;;;30.00;19.00;;;0.00;69.30;;;;;;5058718;28;20458;-79
2020/12/04 03:43:42;;;;;;;32.13;19.07;;;0.10;69.40;;;;;;5058772;28;20464;-79
2020/12/04 03:46:10;;;;;;;32.97;19.80;;;0.10;69.40;;;;;;5064992;28;20483;-77
2020/12/04 03:48:37;;;;;;;31.10;19.87;;;0.20;69.60;;;;;;5060104;28;20513;-81
2020/12/04 03:51:03;;;;;;;29.23;17.87;;;0.10;69.50;;;;;;5064227;28;20835;-79
2020/12/04 03:53:30;;;;;;;29.03;19.07;;;0.00;69.20;;;;;;5061935;28;20925;-80
2020/12/04 03:55:56;;;;;;;28.10;18.30;;;0.00;69.40;;;;;;5065377;28;20466;-77
2020/12/04 03:58:23;;;;;;;30.13;19.53;;;-0.10;69.50;;;;;;5060489;28;20484;-80
2020/12/04 04:00:49;;;;;;;29.07;18.80;;;-0.10;69.50;;;;;;5062615;28;21036;-77
2020/12/04 04:03:16;;;;;;;32.00;19.40;;;0.00;69.60;;;;;;5079183;28;21199;-77
2020/12/04 04:05:44;;;;;;;30.30;17.97;;;0.10;69.90;;;;;;5072198;28;20536;-79
2020/12/04 04:08:10;;;;;;;29.03;17.70;;;0.20;69.70;;;;;;5063365;28;20474;-77
2020/12/04 04:10:36;;;;;;;30.83;17.97;;;0.20;69.60;;;;;;5065187;28;20525;-78
2020/12/04 04:13:03;;;;;;;31.20;18.47;;;0.20;69.40;;;;;;5064518;28;21018;-79
2020/12/04 04:15:29;;;;;;;29.00;16.90;;;0.20;69.20;;;;;;5067093;28;20476;-80
2020/12/04 04:17:58;;;;;;;27.43;18.07;;;0.10;69.30;;;;;;5068144;28;20457;-78
2020/12/04 04:20:26;;;;;;;26.60;16.70;;;0.10;69.20;;;;;;5063707;28;20453;-78
2020/12/04 04:22:53;;;;;;;27.90;18.30;;;0.20;69.60;;;;;;5067506;28;20486;-78
2020/12/04 04:25:19;;;;;;;28.37;17.40;;;0.20;69.70;;;;;;5062986;28;20977;-79
2020/12/04 04:27:46;;;;;;;28.00;18.40;;;0.30;69.60;;;;;;5061131;28;20556;-78
2020/12/04 04:30:12;;;;;;;25.83;14.90;;;0.30;69.30;;;;;;5062710;28;20456;-80
2020/12/04 04:32:39;;;;;;;23.43;17.03;;;0.30;69.40;;;;;;5058913;28;20448;-78
2020/12/04 04:35:06;;;;;;;25.87;17.60;;;0.30;69.40;;;;;;5061117;28;20518;-78
2020/12/04 04:37:33;;;;;;;23.60;16.10;;;0.30;69.60;;;;;;5059693;28;20463;-81
2020/12/04 04:40:00;;;;;;;26.67;17.33;;;0.40;69.70;;;;;;5059819;28;20457;-80
2020/12/04 04:42:26;;;;;;;25.50;16.50;;;0.40;69.60;;;;;;5058926;28;20479;-81
2020/12/04 04:44:54;;;;;;;26.27;16.90;;;0.40;69.50;;;;;;5063338;28;20450;-77
2020/12/04 04:47:23;;;;;;;29.63;16.80;;;0.40;69.50;;;;;;5056473;28;20479;-78
2020/12/04 04:49:52;;;;;;;26.27;16.50;;;0.40;69.30;;;;;;5061049;28;20532;-78
2020/12/04 04:52:19;;;;;;;26.43;17.27;;;0.30;69.70;;;;;;5059332;28;20500;-78
2020/12/04 04:54:47;;;;;;;27.70;17.27;;;0.20;69.20;;;;;;5061981;28;20509;-78
2020/12/04 04:57:15;;;;;;;29.10;17.60;;;0.20;69.30;;;;;;5058500;28;20888;-79
2020/12/04 04:59:41;;;;;;;25.30;16.07;;;0.20;69.60;;;;;;5059021;28;20543;-78
2020/12/04 05:02:11;;;;;;;24.87;15.77;;;0.30;69.60;;;;;;5059979;28;20465;-78
2020/12/04 05:04:52;;;;;;;25.60;17.40;;;0.30;69.50;;;;;;5060310;28;20456;-79
2020/12/04 05:07:25;;;;;;;25.57;16.57;;;0.30;69.50;;;;;;5059739;28;20500;-78
2020/12/04 05:09:53;;;;;;;25.57;17.40;;;0.30;69.60;;;;;;5066675;28;20858;-78
2020/12/04 05:12:19;;;;;;;24.03;15.60;;;0.40;69.40;;;;;;5060285;28;20461;-78
2020/12/04 05:14:45;;;;;;;24.33;16.33;;;0.30;69.20;;;;;;5062667;28;20461;-79
2020/12/04 05:17:12;;;;;;;27.97;18.07;;;0.40;69.10;;;;;;5064324;28;20453;-79
2020/12/04 05:19:41;;;;;;;27.13;15.97;;;0.40;69.10;;;;;;5066489;28;20479;-78
2020/12/04 05:22:09;;;;;;;23.67;15.30;;;0.40;69.10;;;;;;5063617;28;21010;-80
2020/12/04 05:24:36;;;;;;;27.33;17.23;;;0.30;69.20;;;;;;5064030;28;20444;-78
2020/12/04 05:27:26;;;;;;;26.53;16.97;;;0.40;69.10;;;;;;5065070;28;20521;-79
2020/12/04 05:29:54;;;;;;;25.00;15.43;;;0.30;69.10;;;;;;5062945;28;20494;-78
2020/12/04 05:32:21;;;;;;;26.17;15.97;;;0.40;69.10;;;;;;5063027;28;20837;-78
2020/12/04 05:34:47;;;;;;;27.33;17.07;;;0.30;68.90;;;;;;5066582;28;20459;-79
2020/12/04 05:37:17;;;;;;;27.90;18.03;;;0.40;69.20;;;;;;5066342;28;20445;-80
2020/12/04 05:39:45;;;;;;;23.40;16.30;;;0.40;69.00;;;;;;5063065;28;20481;-78
2020/12/04 05:42:28;;;;;;;24.83;15.50;;;0.50;68.80;;;;;;5074353;28;20476;-77
2020/12/04 05:44:54;;;;;;;26.97;16.87;;;0.50;68.80;;;;;;5068921;28;20496;-78
2020/12/04 05:47:33;;;;;;;25.50;16.50;;;0.50;68.90;;;;;;5069297;28;20579;-79
2020/12/04 05:50:00;;;;;;;27.50;16.53;;;0.50;69.00;;;;;;5069268;28;20472;-78
2020/12/04 05:52:26;;;;;;;27.97;16.70;;;0.50;68.90;;;;;;5073953;28;20453;-78
2020/12/04 05:54:52;;;;;;;28.27;17.97;;;0.40;68.70;;;;;;5072943;28;20529;-78
2020/12/04 05:57:21;;;;;;;24.67;16.67;;;0.40;68.70;;;;;;5067827;28;20475;-79
2020/12/04 05:59:49;;;;;;;30.13;17.73;;;0.40;69.10;;;;;;5065291;28;20503;-79
2020/12/04 06:02:16;;;;;;;27.53;17.93;;;0.40;68.70;;;;;;5069334;28;20472;-79
2020/12/04 06:04:43;;;;;;;27.40;17.93;;;0.40;68.70;;;;;;5063290;28;20444;-78
2020/12/04 06:07:13;;;;;;;26.30;16.73;;;0.30;68.60;;;;;;5068332;28;20538;-77
2020/12/04 06:09:40;;;;;;;29.63;18.30;;;0.30;68.80;;;;;;5065870;28;20463;-78
2020/12/04 06:12:11;;;;;;;27.90;17.93;;;0.40;68.90;;;;;;5066257;28;21386;-82
2020/12/04 06:14:38;;;;;;;29.60;18.20;;;0.40;69.00;;;;;;5072058;28;20535;-79
2020/12/04 06:17:12;;;;;;;26.10;16.93;;;0.30;68.90;;;;;;5069386;28;20491;-78
2020/12/04 06:19:40;;;;;;;26.23;17.20;;;0.30;69.10;;;;;;5068185;28;20958;-78
2020/12/04 06:22:08;;;;;;;25.30;16.03;;;0.40;69.00;;;;;;5066805;28;20446;-77
2020/12/04 06:25:02;;;;;;;28.77;18.43;;;0.30;68.60;;;;;;5070840;28;20464;-81
2020/12/04 06:27:43;;;;;;;25.03;16.27;;;0.30;69.10;;;;;;5069465;28;20478;-79
2020/12/04 06:30:12;;;;;;;30.17;19.07;;;0.30;69.10;;;;;;5065221;28;20466;-77
2020/12/04 06:32:41;;;;;;;30.23;18.13;;;0.20;69.30;;;;;;5066216;28;20438;-80
2020/12/04 06:35:09;;;;;;;30.80;19.47;;;0.10;69.20;;;;;;5067514;28;20474;-80
2020/12/04 06:37:37;;;;;;;31.37;17.90;;;0.10;69.20;;;;;;5063332;28;20448;-78
2020/12/04 06:40:23;;;;;;;34.80;20.30;;;0.10;69.40;;;;;;5069232;28;20463;-79
2020/12/04 06:42:49;;;;;;;27.10;17.37;;;0.00;69.20;;;;;;5074917;28;20944;-75
2020/12/04 06:45:16;;;;;;;26.10;18.30;;;-0.10;69.50;;;;;;5070023;28;20462;-82
2020/12/04 06:47:43;;;;;;;31.70;19.63;;;-0.20;69.50;;;;;;5070264;28;20526;-73
2020/12/04 06:50:10;;;;;;;26.53;18.90;;;-0.20;70.00;;;;;;5060245;28;20458;-75
2020/12/04 06:52:37;;;;;;;30.03;18.60;;;-0.20;69.60;;;;;;5067501;28;20523;-74
2020/12/04 06:55:04;;;;;;;30.60;18.67;;;-0.30;69.60;;;;;;5066853;28;20538;-74
2020/12/04 06:57:30;;;;;;;31.23;18.07;;;-0.40;69.90;;;;;;5065219;28;21076;-76
2020/12/04 06:59:57;;;;;;;28.70;19.53;;;-0.40;70.00;;;;;;5065885;28;20471;-74
2020/12/04 07:02:24;;;;;;;29.77;19.37;;;-0.50;70.00;;;;;;5066020;28;20464;-74
2020/12/04 07:04:52;;;;;;;30.47;19.60;;;-0.50;70.20;;;;;;5064492;28;20523;-75
2020/12/04 07:07:20;;;;;;;33.40;19.70;;;-0.60;70.30;;;;;;5070000;28;20469;-81
2020/12/04 07:09:55;;;;;;;30.53;19.23;;;-0.60;70.60;;;;;;5079915;28;20449;-85
2020/12/04 07:12:22;;;;;;;29.70;19.03;;;-0.70;70.80;;;;;;5077955;28;20505;-81
2020/12/04 07:14:50;;;;;;;32.80;19.90;;;-0.70;71.00;;;;;;5079416;28;20465;-85
2020/12/04 07:17:18;;;;;;;29.70;19.60;;;-0.60;71.20;;;;;;5077616;28;20444;-82
2020/12/04 07:19:46;;;;;;;31.80;19.03;;;-0.70;71.00;;;;;;5078034;28;20447;-78
2020/12/04 07:22:14;;;;;;;31.90;19.03;;;-0.70;70.90;;;;;;5068645;28;20483;-81
2020/12/04 07:24:41;;;;;;;31.80;19.60;;;-0.70;71.50;;;;;;5078634;28;20488;-82
2020/12/04 07:27:08;;;;;;;28.80;18.60;;;-0.60;71.30;;;;;;5076282;28;20470;-81
2020/12/04 07:29:38;;;;;;;40.30;19.60;;;-0.60;71.10;;;;;;5077445;28;20481;-81
2020/12/04 07:32:05;;;;;;;30.03;18.33;;;-0.60;71.00;;;;;;5079537;28;20470;-79
2020/12/04 07:34:35;;;;;;;33.40;20.30;;;-0.50;70.90;;;;;;5085829;28;20476;-80
2020/12/04 07:37:03;;;;;;;29.83;17.80;;;-0.40;71.00;;;;;;5078196;28;21761;-80
2020/12/04 07:39:33;;;;;;;31.43;20.43;;;-0.40;70.70;;;;;;5076583;28;20461;-80
2020/12/04 07:42:01;;;;;;;28.93;17.80;;;-0.30;70.70;;;;;;5082770;28;20460;-81
2020/12/04 07:44:30;;;;;;;28.67;19.00;;;-0.20;70.50;;;;;;5080415;28;20449;-83
2020/12/04 07:47:01;;;;;;;29.90;17.87;;;-0.10;70.20;;;;;;5076984;28;20519;-80
2020/12/04 07:49:28;;;;;;;28.47;18.27;;;0.00;69.80;;;;;;5080408;28;20503;-81
2020/12/04 07:52:09;;;;;;;28.70;17.53;;;0.10;69.70;;;;;;5082493;28;20442;-81
2020/12/04 07:54:36;;;;;;;27.50;16.97;;;0.30;69.40;;;;;;5078721;28;20458;-81
2020/12/04 07:57:03;;;;;;;30.23;18.43;;;0.60;69.30;;;;;;5081999;28;20460;-84
2020/12/04 08:02:30;;;;;;;27.10;17.50;;;0.70;68.70;;;;;;5088141;28;20511;-81
2020/12/04 08:04:59;;;;;;;30.97;17.80;;;0.70;67.90;;;;;;5092542;28;20468;-84
2020/12/04 08:07:30;;;;;;;22.83;17.03;;;0.80;68.40;;;;;;5092193;28;20470;-83
2020/12/04 08:09:57;;;;;;;24.40;14.50;;;0.80;67.70;;;;;;5088958;28;20448;-82
2020/12/04 08:12:28;;;;;;;27.47;16.63;;;0.80;67.60;;;;;;5086275;28;20465;-84
2020/12/04 08:15:05;;;;;;;24.20;15.60;;;0.90;67.80;;;;;;5084463;28;20473;-88
2020/12/04 08:17:34;;;;;;;23.97;15.50;;;0.80;67.30;;;;;;5052778;28;20458;-90
2020/12/04 08:20:02;;;;;;;25.53;16.77;;;1.10;67.50;;;;;;5080345;28;20578;-88
2020/12/04 08:22:31;;;;;;;23.50;16.23;;;1.00;67.60;;;;;;5058140;28;20473;-88
2020/12/04 08:25:07;;;;;;;25.40;17.40;;;1.10;67.40;;;;;;5076613;28;20931;-89
2020/12/04 08:27:35;;;;;;;25.50;18.10;;;1.00;67.70;;;;;;5072218;28;20470;-88
2020/12/04 08:30:08;;;;;;;23.10;17.07;;;1.10;67.20;;;;;;5072019;28;20527;-90
2020/12/04 08:32:35;;;;;;;28.20;20.02;;;1.00;67.00;;;;;;5066648;28;20459;-79
2020/12/04 08:35:11;;;;;;;22.07;16.60;;;0.90;67.20;;;;;;5063102;28;20214;-78
2020/12/04 08:37:39;;;;;;;25.55;17.80;;;0.80;67.00;;;;;;5071484;28;20868;-80
2020/12/04 08:40:19;;;;;;;26.70;17.87;;;0.80;67.30;;;;;;5064185;28;20190;-80
2020/12/04 08:42:45;;;;;;;25.85;18.70;;;0.90;67.20;;;;;;5071729;28;20454;-81
2020/12/04 08:45:11;;;;;;;24.57;16.83;;;0.90;66.80;;;;;;5077160;28;20191;-81
2020/12/04 08:47:42;;;;;;;21.83;16.00;;;1.00;67.00;;;;;;5079947;28;20492;-83
2020/12/04 08:50:14;;;;;;;26.00;16.30;;;1.20;66.80;;;;;;5073289;28;20464;-83
2020/12/04 08:52:51;;;;;;;24.13;15.87;;;1.10;66.40;;;;;;5066582;28;20464;-82
2020/12/04 08:55:20;;;;;;;24.47;15.67;;;1.20;66.30;;;;;;5074891;28;20518;-82
2020/12/04 08:57:47;;;;;;;23.93;16.13;;;1.40;66.10;;;;;;5074611;28;20543;-87
2020/12/04 09:00:16;;;;;;;24.50;16.57;;;1.50;66.30;;;;;;5077594;28;21031;-81
2020/12/04 09:02:46;;;;;;;26.60;20.00;;;1.40;65.60;;;;;;5073453;28;20489;-86
2020/12/04 09:05:14;;;;;;;24.88;18.63;;;1.40;65.70;;;;;;5073252;28;21030;-76
2020/12/04 09:07:41;;;;;;;24.55;19.98;;;1.30;65.30;;;;;;5063403;28;20450;-82
2020/12/04 09:10:11;;;;;;;25.48;19.63;;;1.50;65.70;;;;;;5058894;28;20446;-77
2020/12/04 09:12:38;;;;;;;26.55;20.52;;;1.40;65.00;;;;;;5058837;28;20447;-78
2020/12/04 09:15:06;;;;;;;24.07;17.77;;;1.50;65.00;;;;;;5068335;28;20233;-78
2020/12/04 09:17:32;;;;;;;27.27;16.53;;;1.40;64.90;;;;;;5067224;28;20460;-78
2020/12/04 09:19:59;;;;;;;22.40;16.73;;;1.50;65.00;;;;;;5067954;28;20536;-82
2020/12/04 09:22:25;;;;;;;26.33;16.10;;;1.50;65.00;;;;;;5065397;28;21579;-79
2020/12/04 09:24:52;;;;;;;25.17;16.40;;;1.40;64.80;;;;;;5066534;28;20931;-81
2020/12/04 09:27:20;;;;;;;24.50;19.02;;;1.60;64.50;;;;;;5077870;28;20445;-87
2020/12/04 09:29:51;;;;;;;23.60;17.33;;;2.20;64.80;;;;;;5081696;28;20288;-85
2020/12/04 09:32:19;;;;;;;23.90;14.37;;;2.50;64.50;;;;;;5075100;28;20456;-86
2020/12/04 09:34:49;;;;;;;22.70;16.10;;;2.50;63.20;;;;;;5080547;28;20545;-87
2020/12/04 09:40:06;;;;;;;25.20;16.90;;;2.20;62.70;;;;;;5089429;28;20457;-89
2020/12/04 09:42:36;;;;;;;27.95;19.27;;;1.40;63.50;;;;;;5057582;28;20462;-79
2020/12/04 09:45:03;;;;;;;24.25;20.00;;;1.80;64.00;;;;;;5076639;28;20513;-79
2020/12/04 09:47:31;;;;;;;24.83;17.53;;;1.50;63.80;;;;;;5072095;28;20294;-78
2020/12/04 09:49:58;;;;;;;24.37;16.90;;;1.90;64.40;;;;;;5067070;28;20462;-79
2020/12/04 09:52:25;;;;;;;28.30;16.67;;;2.00;64.30;;;;;;5066193;28;20978;-78
2020/12/04 09:54:51;;;;;;;22.20;15.83;;;1.90;63.50;;;;;;5062237;28;21051;-78
2020/12/04 09:57:21;;;;;;;22.17;15.13;;;2.10;63.80;;;;;;5065770;28;21092;-78
2020/12/04 09:59:48;;;;;;;23.37;14.50;;;2.40;63.50;;;;;;5061353;28;20448;-78
2020/12/04 10:02:14;;;;;;;21.27;14.87;;;2.60;63.30;;;;;;5058421;28;20993;-78
2020/12/04 10:04:41;;;;;;;21.40;14.37;;;3.10;63.40;;;;;;5065353;28;20466;-80
2020/12/04 10:07:09;;;;;;;24.80;15.77;;;3.20;62.60;;;;;;5077028;28;20963;-88
2020/12/04 10:09:36;;;;;;;25.77;17.03;;;3.50;62.40;;;;;;5056435;28;20455;-85
2020/12/04 10:12:03;;;;;;;22.17;15.70;;;3.40;62.00;;;;;;5072930;28;20474;-86
2020/12/04 10:14:30;;;;;;;23.10;15.67;;;3.70;62.10;;;;;;5080317;28;20516;-83
2020/12/04 10:17:00;;;;;;;24.70;16.40;;;3.70;61.30;;;;;;5067558;28;20463;-86
2020/12/04 10:19:40;;;;;;;24.37;15.40;;;3.80;61.20;;;;;;5078871;28;20564;-83
2020/12/04 10:22:07;;;;;;;22.43;15.23;;;3.90;60.90;;;;;;5062652;28;20468;-85
2020/12/04 10:24:35;;;;;;;23.23;15.03;;;3.80;60.80;;;;;;5065869;28;20451;-83
2020/12/04 10:27:01;;;;;;;21.27;13.90;;;3.80;60.50;;;;;;5072259;28;21588;-87
2020/12/04 10:29:28;;;;;;;22.60;15.27;;;3.50;60.10;;;;;;5073402;28;20454;-88
2020/12/04 10:31:54;;;;;;;22.87;14.87;;;3.50;60.40;;;;;;5068886;28;20481;-86
2020/12/04 10:34:22;;;;;;;25.50;16.00;;;3.40;60.40;;;;;;5060087;28;20346;-87
2020/12/04 10:36:51;;;;;;;22.97;15.03;;;3.50;60.70;;;;;;5053882;28;20813;-90
2020/12/04 10:39:19;;;;;;;18.03;14.33;;;3.30;60.00;;;;;;5046136;28;20446;-84
2020/12/04 10:41:45;;;;;;;23.08;16.15;;;3.20;60.20;;;;;;5072131;28;20442;-79
2020/12/04 10:44:12;;;;;;;22.00;15.67;;;3.30;60.60;;;;;;5074979;28;20601;-78
2020/12/04 10:46:39;;;;;;;18.57;13.97;;;3.40;60.30;;;;;;5068681;28;20606;-83
2020/12/04 10:49:08;;;;;;;22.60;17.23;;;3.50;60.40;;;;;;5052243;28;20449;-81
2020/12/04 10:51:37;;;;;;;21.57;15.37;;;3.40;60.00;;;;;;5070163;28;20201;-79
2020/12/04 10:54:05;;;;;;;19.80;14.60;;;3.40;60.40;;;;;;5076203;28;20447;-80
2020/12/04 10:56:32;;;;;;;20.37;15.07;;;3.30;60.00;;;;;;5070485;28;20482;-79
2020/12/04 10:58:59;;;;;;;21.90;14.90;;;3.20;60.10;;;;;;5082055;28;20605;-83
2020/12/04 11:01:29;;;;;;;23.50;15.23;;;3.20;60.50;;;;;;5075204;28;20456;-82
2020/12/04 11:06:42;;;;;;;21.83;14.67;;;3.40;60.40;;;;;;5074329;28;20905;-83
2020/12/04 11:09:08;;;;;;;19.30;14.07;;;3.40;60.00;;;;;;5070769;28;20478;-82
2020/12/04 11:11:35;;;;;;;24.63;14.70;;;3.60;60.20;;;;;;5077710;28;20565;-82
2020/12/04 11:14:01;;;;;;;19.57;13.43;;;3.70;59.90;;;;;;5087484;28;20545;-82
2020/12/04 11:16:29;;;;;;;22.17;14.73;;;3.60;59.30;;;;;;5078503;28;20480;-83
2020/12/04 11:19:01;;;;;;;21.43;13.97;;;3.70;59.60;;;;;;5086409;28;20466;-82
2020/12/04 11:21:29;;;;;;;21.55;16.13;;;3.70;59.60;;;;;;5070843;28;20446;-80
2020/12/04 11:23:57;;;;;;;19.13;14.43;;;3.80;59.60;;;;;;5071346;28;20227;-80
2020/12/04 11:26:24;;;;;;;18.47;14.10;;;3.50;59.20;;;;;;5073752;28;20780;-79
2020/12/04 11:28:50;;;;;;;20.40;14.57;;;3.60;59.60;;;;;;5072826;28;20476;-83
2020/12/04 11:31:17;;;;;;;20.50;13.73;;;3.70;59.90;;;;;;5083509;28;20459;-79
2020/12/04 11:33:44;;;;;;;18.87;13.50;;;3.70;59.70;;;;;;5084056;28;21162;-80
2020/12/04 11:36:14;;;;;;;19.47;13.60;;;3.70;59.40;;;;;;5083429;28;20497;-83
2020/12/04 11:38:48;;;;;;;17.50;13.30;;;3.70;58.90;;;;;;5093309;28;20507;-84
2020/12/04 11:41:17;;;;;;;20.23;13.40;;;3.90;59.50;;;;;;5096540;28;20449;-85
2020/12/04 11:43:47;;;;;;;20.40;13.43;;;4.10;59.40;;;;;;5087600;28;20463;-85
2020/12/04 11:46:13;;;;;;;18.85;14.18;;;4.10;58.80;;;;;;5091959;28;20524;-78
2020/12/04 11:48:40;;;;;;;22.00;13.23;;;4.10;58.70;;;;;;5072161;28;20221;-79
2020/12/04 11:51:07;;;;;;;17.00;12.20;;;3.90;58.90;;;;;;5072998;28;20471;-80
2020/12/04 11:53:33;;;;;;;20.10;13.97;;;3.80;58.70;;;;;;5067068;28;20445;-80
2020/12/04 11:56:00;;;;;;;17.60;13.07;;;3.60;59.20;;;;;;5064289;28;20455;-79
2020/12/04 11:58:27;;;;;;;17.77;12.57;;;3.50;59.50;;;;;;5065224;28;20447;-79
2020/12/04 12:00:54;;;;;;;19.77;12.60;;;3.40;59.40;;;;;;5068076;28;20439;-79
2020/12/04 12:03:20;;;;;;;18.47;12.40;;;3.30;59.40;;;;;;5063310;28;20486;-78
2020/12/04 12:05:46;;;;;;;21.20;14.60;;;3.30;59.70;;;;;;5068611;28;20445;-79
2020/12/04 12:08:13;;;;;;;18.85;14.68;;;3.30;59.70;;;;;;5067809;28;20944;-78
2020/12/04 12:10:40;;;;;;;20.50;14.17;;;3.40;59.50;;;;;;5073262;28;20209;-80
2020/12/04 12:13:07;;;;;;;15.50;12.13;;;3.50;59.20;;;;;;5071878;28;20468;-82
2020/12/04 12:15:34;;;;;;;17.03;13.40;;;3.50;59.20;;;;;;5084184;28;20485;-84
2020/12/04 12:18:01;;;;;;;17.80;13.00;;;3.70;59.20;;;;;;5086300;28;20467;-82
2020/12/04 12:20:30;;;;;;;20.23;13.50;;;3.80;58.80;;;;;;5072442;28;20450;-83
2020/12/04 12:22:56;;;;;;;16.93;12.60;;;3.90;58.70;;;;;;5079932;28;20533;-84
2020/12/04 12:25:24;;;;;;;16.30;12.97;;;4.10;58.80;;;;;;5081400;28;20448;-85
2020/12/04 12:27:50;;;;;;;15.30;11.20;;;4.10;58.90;;;;;;5077491;28;20479;-82
2020/12/04 12:30:17;;;;;;;18.70;13.40;;;4.10;58.50;;;;;;5075768;28;20447;-82
2020/12/04 12:32:45;;;;;;;17.87;13.23;;;4.10;58.30;;;;;;5075835;28;20482;-86
2020/12/04 12:35:24;;;;;;;21.40;12.93;;;4.00;58.30;;;;;;5075532;28;20827;-84
2020/12/04 12:37:53;;;;;;;15.37;11.73;;;4.10;58.80;;;;;;5078024;28;20461;-86
2020/12/04 12:40:20;;;;;;;13.10;10.80;;;4.20;58.40;;;;;;5081654;28;20488;-86
2020/12/04 12:42:46;;;;;;;17.73;13.88;;;4.20;58.60;;;;;;5067291;28;20466;-78
2020/12/04 12:45:14;;;;;;;20.50;13.43;;;4.20;58.90;;;;;;5062592;28;20454;-77